Time;durP1;ratioP1;P1;durP2;ratioP2;P2;SDS_P1;SDS_P2;PMS_P1;PMS_P2;Temp;Humidity;BMP_temperature;BMP_pressure;BME280_temperature;BME280_humidity;BME280_pressure;Samples;Min_cycle;Max_cycle;Signal;HPM_P1;HPM_P2
2021/01/10 00:01:37;;;;;;;16.17;11.35;;;;;;;-2.10;84.56;99599.53;5076784;28;20236;-84
2021/01/10 00:04:03;;;;;;;19.05;11.27;;;;;;;-2.16;84.46;99607.50;5070297;28;20225;-87
2021/01/10 00:06:29;;;;;;;15.05;10.73;;;;;;;-2.22;84.54;99602.25;5051437;28;20227;-85
2021/01/10 00:08:56;;;;;;;12.85;10.52;;;;;;;-2.20;84.33;99600.50;5075017;28;20190;-84
2021/01/10 00:11:22;;;;;;;14.23;10.27;;;;;;;-2.24;84.36;99598.78;5080299;28;20227;-84
2021/01/10 00:13:48;;;;;;;17.05;10.80;;;;;;;-2.25;83.98;99600.53;5076980;28;20255;-84
2021/01/10 00:16:15;;;;;;;17.08;10.75;;;;;;;-2.34;84.29;99602.34;5071990;28;20251;-84
2021/01/10 00:18:42;;;;;;;14.27;10.65;;;;;;;-2.32;84.04;99598.81;5042746;28;20224;-84
2021/01/10 00:21:08;;;;;;;15.23;9.90;;;;;;;-2.41;84.16;99598.00;5074004;28;20204;-84
2021/01/10 00:23:34;;;;;;;13.52;9.90;;;;;;;-2.47;84.28;99595.44;5085673;28;20286;-84
2021/01/10 00:26:01;;;;;;;13.05;8.52;;;;;;;-2.46;83.88;99594.53;5069768;28;20236;-86
2021/01/10 00:28:27;;;;;;;11.27;8.75;;;;;;;-2.48;84.26;99598.94;5092916;28;20219;-84
2021/01/10 00:30:53;;;;;;;12.52;8.30;;;;;;;-2.47;84.49;99595.44;5078688;28;20215;-84
2021/01/10 00:33:22;;;;;;;16.88;10.18;;;;;;;-2.51;84.42;99594.56;5057273;28;20192;-85
2021/01/10 00:36:12;;;;;;;12.75;8.60;;;;;;;-2.50;84.52;99591.06;5067158;28;20247;-84
2021/01/10 00:38:39;;;;;;;10.90;8.02;;;;;;;-2.49;84.53;99587.56;5047255;28;20216;-84
2021/01/10 00:41:05;;;;;;;10.60;7.75;;;;;;;-2.40;84.50;99603.28;5076859;28;20239;-84
2021/01/10 00:43:31;;;;;;;12.98;9.40;;;;;;;-2.31;84.22;99597.94;5075107;28;20382;-84
2021/01/10 00:45:58;;;;;;;10.27;8.48;;;;;;;-2.28;83.87;99597.03;5073498;28;20220;-83
2021/01/10 00:48:24;;;;;;;11.77;8.02;;;;;;;-2.33;83.46;99596.22;5060358;28;20706;-83
2021/01/10 00:50:50;;;;;;;10.68;7.40;;;;;;;-2.39;83.26;99588.38;5072724;28;20223;-84
2021/01/10 00:53:17;;;;;;;12.43;8.05;;;;;;;-2.42;83.04;99594.53;5059895;28;20216;-83
2021/01/10 00:55:47;;;;;;;11.77;8.35;;;;;;;-2.48;83.03;99588.41;5055030;28;20223;-84
2021/01/10 00:58:14;;;;;;;9.30;7.25;;;;;;;-2.54;83.44;99598.97;5055548;28;20801;-81
2021/01/10 01:00:41;;;;;;;10.60;7.70;;;;;;;-2.57;83.36;99591.13;5060789;28;20228;-82
2021/01/10 01:03:08;;;;;;;12.52;7.90;;;;;;;-2.54;83.61;99593.72;5075594;28;20207;-83
2021/01/10 01:05:37;;;;;;;11.90;8.25;;;;;;;-2.43;83.65;99591.91;5059633;28;20200;-83
2021/01/10 01:08:05;;;;;;;11.00;7.45;;;;;;;-2.54;83.37;99591.97;5064939;28;20215;-84
2021/01/10 01:10:46;;;;;;;12.88;8.57;;;;;;;-2.60;83.45;99588.50;5078681;28;20231;-83
2021/01/10 01:13:13;;;;;;;12.23;8.20;;;;;;;-2.61;83.79;99599.91;5090298;28;20204;-81
2021/01/10 01:15:40;;;;;;;11.80;7.85;;;;;;;-2.67;84.13;99594.69;5069072;28;20318;-82
2021/01/10 01:18:08;;;;;;;11.57;8.40;;;;;;;-2.64;84.01;99597.31;5062324;28;20226;-83
2021/01/10 01:20:35;;;;;;;15.65;11.57;;;;;;;-2.62;83.91;99601.69;5085760;28;20228;-82
2021/01/10 01:23:03;;;;;;;15.85;11.52;;;;;;;-2.61;84.32;99613.06;5061718;28;20278;-84
2021/01/10 01:25:41;;;;;;;16.70;10.95;;;;;;;-2.53;84.17;99611.25;5060829;28;20207;-80
2021/01/10 01:28:07;;;;;;;16.58;11.23;;;;;;;-2.54;84.16;99605.13;5069340;28;20295;-80
2021/01/10 01:30:34;;;;;;;21.75;13.25;;;;;;;-2.57;83.72;99609.53;5057031;28;20279;-83
2021/01/10 01:33:00;;;;;;;17.23;11.80;;;;;;;-2.59;83.75;99617.44;5047528;28;20203;-85
2021/01/10 01:35:26;;;;;;;15.35;11.10;;;;;;;-2.65;83.92;99614.00;5066823;28;20228;-83
2021/01/10 01:37:52;;;;;;;18.13;12.02;;;;;;;-2.58;84.00;99615.69;5072072;28;20223;-82
2021/01/10 01:40:19;;;;;;;17.60;11.07;;;;;;;-2.59;83.73;99611.28;5067607;28;20243;-80
2021/01/10 01:42:46;;;;;;;17.55;11.25;;;;;;;-2.65;83.77;99616.63;5074397;28;20228;-82
2021/01/10 01:45:12;;;;;;;17.33;11.98;;;;;;;-2.68;83.83;99616.63;5074422;28;20199;-82
2021/01/10 01:47:44;;;;;;;20.20;12.23;;;;;;;-2.72;84.29;99620.13;5047205;28;20193;-82
2021/01/10 01:50:10;;;;;;;15.85;10.85;;;;;;;-2.72;84.19;99617.50;5093973;28;20228;-83
2021/01/10 01:52:39;;;;;;;16.52;9.90;;;;;;;-2.80;83.98;99611.41;5061639;28;20300;-82
2021/01/10 01:55:06;;;;;;;13.65;9.52;;;;;;;-2.83;84.31;99616.72;5065254;28;20231;-78
2021/01/10 01:57:32;;;;;;;17.10;11.50;;;;;;;-2.89;84.54;99619.38;5087235;28;20659;-81
2021/01/10 01:59:58;;;;;;;14.27;9.18;;;;;;;-2.88;84.69;99613.22;5081408;28;20221;-82
2021/01/10 02:02:25;;;;;;;14.10;9.43;;;;;;;-2.95;84.40;99616.78;5049711;28;20731;-82
2021/01/10 02:05:04;;;;;;;9.35;7.85;;;;;;;-2.94;84.08;99610.63;5077358;28;20226;-84
2021/01/10 02:07:41;;;;;;;13.18;8.23;;;;;;;-2.97;84.34;99618.53;5080631;28;20234;-83
2021/01/10 02:10:10;;;;;;;12.02;8.60;;;;;;;-3.03;84.24;99616.78;5079570;28;20231;-83
2021/01/10 02:12:49;;;;;;;13.32;9.05;;;;;;;-3.01;84.39;99619.44;5071996;28;20234;-85
2021/01/10 02:15:20;;;;;;;14.18;8.93;;;;;;;-3.02;84.33;99615.06;5070696;28;20255;-84
2021/01/10 02:17:54;;;;;;;15.25;7.38;;;;;;;-3.05;84.36;99609.78;5066950;28;20238;-83
2021/01/10 02:20:30;;;;;;;11.55;7.95;;;;;;;-3.13;84.13;99609.84;5063517;28;20224;-81
2021/01/10 02:23:14;;;;;;;13.20;8.80;;;;;;;-3.16;84.45;99608.97;5066462;28;20243;-82
2021/01/10 02:25:43;;;;;;;13.60;8.88;;;;;;;-3.22;84.29;99611.63;5069606;28;20280;-79
2021/01/10 02:28:36;;;;;;;11.32;8.00;;;;;;;-3.27;84.70;99611.63;5085488;28;20220;-84
2021/01/10 02:31:04;;;;;;;12.57;8.82;;;;;;;-3.30;84.36;99605.50;5066002;28;20230;-82
2021/01/10 02:33:30;;;;;;;12.23;8.27;;;;;;;-3.33;84.72;99597.63;5071878;28;20302;-82
2021/01/10 02:35:59;;;;;;;10.85;7.55;;;;;;;-3.36;84.56;99595.88;5082157;28;20212;-80
2021/01/10 02:38:40;;;;;;;10.35;7.35;;;;;;;-3.40;84.66;99593.28;5093291;28;20218;-83
2021/01/10 02:41:16;;;;;;;11.85;8.38;;;;;;;-3.40;84.93;99596.75;5088629;28;20228;-84
2021/01/10 02:43:54;;;;;;;13.68;7.85;;;;;;;-3.41;85.00;99588.91;5071218;28;20223;-83
2021/01/10 02:46:23;;;;;;;10.98;8.73;;;;;;;-3.43;84.69;99593.28;5065079;28;20266;-84
2021/01/10 02:48:50;;;;;;;14.82;10.10;;;;;;;-3.40;84.86;99590.66;5079820;28;20220;-82
2021/01/10 02:51:16;;;;;;;13.50;8.95;;;;;;;-3.42;84.71;99592.38;5069855;28;20230;-81
2021/01/10 02:53:43;;;;;;;12.10;8.55;;;;;;;-3.43;85.04;99588.91;5073668;28;20603;-82
2021/01/10 02:56:09;;;;;;;11.93;8.25;;;;;;;-3.41;84.81;99589.75;5061959;28;20227;-83
2021/01/10 02:58:38;;;;;;;13.55;8.85;;;;;;;-3.43;84.82;99590.66;5087618;28;20363;-84
2021/01/10 03:01:07;;;;;;;13.32;8.77;;;;;;;-3.43;84.56;99588.00;5076462;28;20225;-82
2021/01/10 03:03:34;;;;;;;13.30;8.82;;;;;;;-3.48;84.39;99582.78;5058034;28;20228;-81
2021/01/10 03:06:02;;;;;;;17.45;9.93;;;;;;;-3.47;84.46;99584.53;5069865;28;20189;-80
2021/01/10 03:08:40;;;;;;;12.77;9.30;;;;;;;-3.47;84.99;99583.66;5074549;28;20235;-82
2021/01/10 03:11:07;;;;;;;17.30;9.82;;;;;;;-3.37;84.49;99577.47;5075769;28;20212;-84
2021/01/10 03:13:33;;;;;;;15.15;10.13;;;;;;;-3.34;84.52;99575.72;5069646;28;20224;-82
2021/01/10 03:16:02;;;;;;;13.15;9.23;;;;;;;-3.36;84.33;99572.22;5087111;28;20220;-81
2021/01/10 03:18:28;;;;;;;16.48;10.60;;;;;;;-3.35;84.45;99578.38;5057038;28;20248;-84
2021/01/10 03:20:54;;;;;;;16.23;10.38;;;;;;;-3.38;84.92;99579.25;5065442;28;20226;-84
2021/01/10 03:23:20;;;;;;;14.90;10.65;;;;;;;-3.35;84.55;99578.38;5064356;28;20294;-84
2021/01/10 03:25:47;;;;;;;16.55;10.82;;;;;;;-3.19;84.67;99574.78;5073676;28;20219;-83
2021/01/10 03:28:14;;;;;;;13.73;10.13;;;;;;;-3.31;84.74;99570.47;5066729;28;20232;-86
2021/01/10 03:30:40;;;;;;;17.52;11.15;;;;;;;-3.34;84.97;99577.50;5073296;28;20228;-84
2021/01/10 03:33:07;;;;;;;17.20;10.50;;;;;;;-3.28;85.29;99580.09;5078973;28;20707;-83
2021/01/10 03:35:34;;;;;;;18.40;11.10;;;;;;;-2.70;83.49;99586.81;5058245;28;20192;-83
2021/01/10 03:38:07;;;;;;;14.40;9.88;;;;;;;-2.62;82.21;99590.28;5051603;28;20227;-82
2021/01/10 03:40:33;;;;;;;16.63;12.05;;;;;;;-2.77;82.87;99583.34;5057072;28;20227;-83
2021/01/10 03:43:00;;;;;;;19.60;12.23;;;;;;;-2.86;83.13;99585.13;5069860;28;20227;-80
2021/01/10 03:45:26;;;;;;;16.20;10.95;;;;;;;-2.93;83.10;99588.69;5074300;28;20293;-84
2021/01/10 03:47:54;;;;;;;21.73;14.23;;;;;;;-3.04;83.60;99594.00;5040231;28;20203;-83
2021/01/10 03:50:20;;;;;;;21.48;14.10;;;;;;;-3.10;83.92;99586.16;5076783;28;20228;-84
2021/01/10 03:52:47;;;;;;;19.27;13.00;;;;;;;-3.17;84.11;99587.06;5050627;28;20217;-83
2021/01/10 03:55:13;;;;;;;20.13;12.73;;;;;;;-3.22;84.03;99586.19;5057515;28;20315;-82
2021/01/10 03:57:40;;;;;;;14.45;10.93;;;;;;;-3.00;83.97;99585.22;5068468;28;20318;-80
2021/01/10 04:00:09;;;;;;;15.23;10.98;;;;;;;-2.67;81.83;99590.31;5069814;28;20283;-83
2021/01/10 04:02:35;;;;;;;15.88;10.57;;;;;;;-2.75;81.86;99588.59;5084675;28;20224;-83
2021/01/10 04:05:06;;;;;;;15.40;11.30;;;;;;;-2.81;81.61;99593.88;5075209;28;20226;-82
2021/01/10 04:07:32;;;;;;;14.20;9.80;;;;;;;-2.94;82.32;99597.47;5068945;28;20231;-83
2021/01/10 04:09:59;;;;;;;16.83;10.45;;;;;;;-2.67;81.78;99595.56;5058237;28;20228;-82
2021/01/10 04:12:26;;;;;;;15.15;9.85;;;;;;;-2.66;80.79;99586.78;5085421;28;20224;-83
2021/01/10 04:14:55;;;;;;;12.98;8.93;;;;;;;-2.66;80.36;99593.78;5093771;28;20227;-83
2021/01/10 04:17:25;;;;;;;15.80;9.65;;;;;;;-2.78;80.52;99591.22;5088184;28;20227;-81
2021/01/10 04:19:55;;;;;;;12.88;9.02;;;;;;;-3.01;81.52;99591.34;5073737;28;20225;-82
2021/01/10 04:22:22;;;;;;;15.00;10.05;;;;;;;-3.18;82.02;99589.69;5068255;28;20219;-82
2021/01/10 04:24:50;;;;;;;13.55;9.15;;;;;;;-3.24;82.34;99584.44;5058938;28;20318;-81
2021/01/10 04:27:16;;;;;;;16.42;10.20;;;;;;;-3.36;82.61;99576.59;5067622;28;20203;-82
2021/01/10 04:29:42;;;;;;;15.95;9.13;;;;;;;-3.40;83.29;99585.41;5081624;28;20278;-82
2021/01/10 04:32:09;;;;;;;17.17;9.40;;;;;;;-3.50;83.38;99579.28;5081793;28;20208;-82
2021/01/10 04:34:37;;;;;;;15.70;11.20;;;;;;;-3.54;84.08;99582.78;5067813;28;20227;-79
2021/01/10 04:37:03;;;;;;;17.20;11.35;;;;;;;-3.55;84.08;99572.28;5087932;28;20239;-81
2021/01/10 04:39:31;;;;;;;15.73;10.30;;;;;;;-3.54;83.86;99574.06;5076752;28;20233;-80
2021/01/10 04:41:58;;;;;;;15.45;10.45;;;;;;;-3.54;84.03;99566.16;5099029;28;20226;-82
2021/01/10 04:44:25;;;;;;;18.05;11.35;;;;;;;-3.48;83.99;99574.03;5071265;28;20216;-80
2021/01/10 04:46:51;;;;;;;17.38;11.25;;;;;;;-3.52;83.64;99570.56;5083166;28;20228;-81
2021/01/10 04:49:19;;;;;;;17.52;10.40;;;;;;;-3.46;83.91;99574.91;5077556;28;20238;-83
2021/01/10 04:51:46;;;;;;;16.05;10.68;;;;;;;-3.48;83.48;99576.66;5075399;28;20208;-83
2021/01/10 04:54:14;;;;;;;17.60;11.20;;;;;;;-3.47;83.45;99586.28;5071792;28;20191;-84
2021/01/10 04:56:43;;;;;;;12.35;9.88;;;;;;;-3.53;83.83;99583.69;5062258;28;20281;-82
2021/01/10 04:59:12;;;;;;;14.95;10.05;;;;;;;-3.57;83.73;99581.94;5071051;28;20287;-83
2021/01/10 05:01:45;;;;;;;12.60;8.48;;;;;;;-3.64;83.72;99585.47;5073117;28;20254;-84
2021/01/10 05:04:12;;;;;;;13.77;9.38;;;;;;;-3.64;83.90;99594.22;5063238;28;20224;-80
2021/01/10 05:06:38;;;;;;;15.90;10.00;;;;;;;-3.65;83.56;99584.56;5070477;28;20211;-82
2021/01/10 05:09:06;;;;;;;15.35;9.68;;;;;;;-3.72;83.73;99589.88;5089760;28;20192;-81
2021/01/10 05:11:36;;;;;;;19.35;9.18;;;;;;;-3.75;83.42;99592.47;5074836;28;20234;-80
2021/01/10 05:14:03;;;;;;;9.95;7.82;;;;;;;-3.78;83.68;99595.13;5085275;28;20645;-82
2021/01/10 05:16:32;;;;;;;13.68;9.43;;;;;;;-3.80;83.79;99591.63;5073813;28;20258;-84
2021/01/10 05:19:01;;;;;;;16.83;11.68;;;;;;;-3.84;83.75;99589.88;5076151;28;20554;-83
2021/01/10 05:21:27;;;;;;;15.50;10.15;;;;;;;-3.83;83.60;99600.41;5075973;28;20231;-83
2021/01/10 05:23:55;;;;;;;13.05;9.30;;;;;;;-3.79;83.15;99601.25;5077986;28;20226;-80
2021/01/10 05:26:22;;;;;;;14.73;9.57;;;;;;;-3.85;83.45;99606.53;5059772;28;20220;-83
2021/01/10 05:28:49;;;;;;;14.75;10.02;;;;;;;-3.90;83.22;99597.75;5064574;28;20208;-82
2021/01/10 05:31:39;;;;;;;12.85;8.20;;;;;;;-3.99;83.18;99601.28;5081015;28;20228;-81
2021/01/10 05:34:13;;;;;;;12.10;8.15;;;;;;;-4.02;83.26;99601.28;5066544;28;20208;-81
2021/01/10 05:36:40;;;;;;;11.65;7.93;;;;;;;-4.03;83.43;99611.78;5089246;28;20243;-79
2021/01/10 05:39:18;;;;;;;11.70;8.48;;;;;;;-4.05;82.82;99610.91;5058242;28;20177;-79
2021/01/10 05:41:58;;;;;;;12.00;8.05;;;;;;;-4.11;83.08;99610.91;5075304;28;20196;-79
2021/01/10 05:44:26;;;;;;;11.30;7.38;;;;;;;-4.17;83.00;99606.53;5059908;28;20219;-82
2021/01/10 05:47:07;;;;;;;10.07;7.53;;;;;;;-4.18;82.99;99601.28;5059968;28;20216;-82
2021/01/10 05:49:34;;;;;;;10.10;7.18;;;;;;;-4.24;82.45;99606.53;5055815;28;20240;-81
2021/01/10 05:52:10;;;;;;;12.00;7.65;;;;;;;-4.29;82.59;99603.03;5088382;28;20203;-83
2021/01/10 05:54:48;;;;;;;11.80;7.30;;;;;;;-4.29;82.74;99603.03;5093219;28;20229;-80
2021/01/10 05:57:25;;;;;;;11.35;7.55;;;;;;;-4.31;82.83;99604.78;5085290;28;20560;-81
2021/01/10 05:59:52;;;;;;;10.38;7.15;;;;;;;-4.26;82.73;99597.78;5079318;28;20246;-83
2021/01/10 06:02:27;;;;;;;11.30;7.75;;;;;;;-4.23;82.82;99609.16;5062256;28;20234;-82
2021/01/10 06:05:26;;;;;;;13.35;8.07;;;;;;;-4.19;83.08;99615.28;5054073;28;20216;-82
2021/01/10 06:07:52;;;;;;;12.02;8.10;;;;;;;-4.25;82.66;99602.19;5047371;28;20604;-82
2021/01/10 06:10:29;;;;;;;9.63;7.30;;;;;;;-4.19;82.73;99608.28;5070836;28;20543;-82
2021/01/10 06:13:06;;;;;;;10.00;7.45;;;;;;;-4.24;82.97;99617.03;5073568;28;20240;-81
2021/01/10 06:15:34;;;;;;;15.18;8.85;;;;;;;-4.29;82.80;99613.53;5067479;28;20325;-82
2021/01/10 06:18:04;;;;;;;10.43;7.70;;;;;;;-4.31;82.97;99615.28;5058063;28;20189;-82
2021/01/10 06:20:32;;;;;;;11.07;7.45;;;;;;;-4.34;82.39;99617.91;5082780;28;20724;-82
2021/01/10 06:23:01;;;;;;;12.55;8.27;;;;;;;-4.41;82.33;99618.78;5080715;28;20227;-82
2021/01/10 06:25:30;;;;;;;12.50;8.10;;;;;;;-4.41;82.33;99629.28;5066784;28;20263;-81
2021/01/10 06:28:18;;;;;;;9.40;7.50;;;;;;;-4.43;82.20;99616.13;5065782;28;20702;-83
2021/01/10 06:30:57;;;;;;;13.55;8.18;;;;;;;-4.46;82.24;99617.88;5074490;28;20223;-83
2021/01/10 06:33:35;;;;;;;16.42;10.00;;;;;;;-4.52;82.37;99617.88;5091356;28;20262;-82
2021/01/10 06:36:04;;;;;;;13.13;8.30;;;;;;;-4.57;82.39;99611.78;5080821;28;20207;-81
2021/01/10 06:38:33;;;;;;;12.73;9.05;;;;;;;-4.55;82.43;99621.38;5086859;28;20223;-80
2021/01/10 06:41:24;;;;;;;12.02;8.70;;;;;;;-4.58;82.51;99615.25;5067850;28;20263;-81
2021/01/10 06:43:57;;;;;;;12.25;8.20;;;;;;;-4.59;82.57;99619.63;5078357;28;20260;-82
2021/01/10 06:46:24;;;;;;;10.60;8.43;;;;;;;-4.44;82.13;99613.53;5073689;28;20213;-82
2021/01/10 06:48:51;;;;;;;13.60;8.77;;;;;;;-4.50;81.75;99605.66;5063326;28;20220;-82
2021/01/10 06:51:21;;;;;;;10.70;7.47;;;;;;;-4.60;81.79;99617.00;5070437;28;20268;-83
2021/01/10 06:53:49;;;;;;;12.27;7.72;;;;;;;-4.68;82.21;99614.34;5090340;28;20218;-81
2021/01/10 06:56:16;;;;;;;17.50;9.48;;;;;;;-4.72;82.59;99612.59;5069629;28;20232;-84
2021/01/10 06:59:08;;;;;;;12.23;8.43;;;;;;;-4.78;82.51;99616.94;5055137;28;20279;-84
2021/01/10 07:01:52;;;;;;;17.10;10.45;;;;;;;-4.76;82.94;99620.47;5083669;28;20222;-81
2021/01/10 07:04:23;;;;;;;14.35;8.98;;;;;;;-4.76;82.85;99610.84;5076501;28;20231;-82
2021/01/10 07:06:53;;;;;;;11.40;8.27;;;;;;;-4.70;83.05;99610.84;5076098;28;20236;-83
2021/01/10 07:09:22;;;;;;;15.15;9.60;;;;;;;-4.66;82.87;99611.72;5071391;28;20223;-83
2021/01/10 07:11:50;;;;;;;15.25;9.30;;;;;;;-4.69;82.44;99619.63;5072246;28;20197;-84
2021/01/10 07:14:16;;;;;;;15.63;9.32;;;;;;;-4.72;83.03;99624.84;5074528;28;20278;-80
2021/01/10 07:16:44;;;;;;;15.85;10.13;;;;;;;-4.74;82.60;99624.81;5094777;28;20212;-80
2021/01/10 07:19:13;;;;;;;16.52;10.23;;;;;;;-4.75;82.81;99622.22;5068576;28;20222;-80
2021/01/10 07:21:46;;;;;;;14.60;9.70;;;;;;;-4.75;82.69;99617.81;5078543;28;20210;-82
2021/01/10 07:24:21;;;;;;;15.90;10.80;;;;;;;-4.49;82.48;99616.13;5066817;28;20172;-81
2021/01/10 07:26:59;;;;;;;16.02;9.90;;;;;;;-4.66;82.12;99616.97;5066980;28;20175;-82
2021/01/10 07:29:39;;;;;;;22.70;12.43;;;;;;;-4.67;82.34;99621.38;5080713;28;20220;-82
2021/01/10 07:32:20;;;;;;;18.75;12.60;;;;;;;-4.69;82.33;99611.75;5079273;28;20291;-83
2021/01/10 07:34:46;;;;;;;20.65;11.15;;;;;;;-4.71;82.73;99614.34;5065181;28;20233;-82
2021/01/10 07:37:15;;;;;;;20.35;12.43;;;;;;;-4.67;82.81;99617.84;5080257;28;20290;-82
2021/01/10 07:39:52;;;;;;;16.23;11.57;;;;;;;-4.64;82.40;99623.09;5079833;28;20322;-82
2021/01/10 07:42:20;;;;;;;16.90;11.38;;;;;;;-4.68;82.59;99618.72;5067787;28;20194;-83
2021/01/10 07:44:51;;;;;;;17.05;11.82;;;;;;;-4.65;82.67;99614.38;5087054;28;20635;-82
2021/01/10 07:47:29;;;;;;;21.42;13.77;;;;;;;-4.63;82.21;99627.50;5067829;28;20224;-83
2021/01/10 07:49:58;;;;;;;21.90;13.40;;;;;;;-4.65;81.79;99624.88;5038250;28;20236;-82
2021/01/10 07:52:58;;;;;;;15.45;9.63;;;;;;;-4.20;80.17;99617.03;5044239;28;20220;-82
2021/01/10 07:55:31;;;;;;;21.70;11.65;;;;;;;-4.44;81.18;99627.50;5053056;28;20212;-81
2021/01/10 07:58:02;;;;;;;21.15;12.35;;;;;;;-4.45;80.84;99628.38;5064050;28;20235;-82
2021/01/10 08:00:35;;;;;;;19.73;11.73;;;;;;;-4.45;80.99;99622.25;5064440;28;20243;-83
2021/01/10 08:03:17;;;;;;;17.88;11.30;;;;;;;-4.45;81.26;99628.38;5053746;28;20199;-80
2021/01/10 08:05:57;;;;;;;18.15;13.07;;;;;;;-4.43;81.00;99641.53;5051427;28;20242;-82
2021/01/10 08:08:37;;;;;;;17.58;12.45;;;;;;;-4.41;81.16;99638.03;5073919;28;20224;-84
2021/01/10 08:11:03;;;;;;;16.33;10.65;;;;;;;-4.37;81.45;99636.28;5044801;28;20263;-82
2021/01/10 08:13:40;;;;;;;15.70;10.15;;;;;;;-4.37;81.24;99636.28;5049168;28;20220;-82
2021/01/10 08:16:06;;;;;;;20.27;12.07;;;;;;;-4.33;81.26;99636.28;5060754;28;20231;-84
2021/01/10 08:18:40;;;;;;;27.67;16.48;;;;;;;-4.29;81.32;99640.63;5066823;28;20232;-84
2021/01/10 08:21:16;;;;;;;21.67;14.57;;;;;;;-4.21;81.53;99645.91;5068163;28;20234;-84
2021/01/10 08:23:44;;;;;;;19.95;12.60;;;;;;;-4.22;80.83;99642.44;5055508;28;20642;-84
2021/01/10 08:26:16;;;;;;;15.77;9.93;;;;;;;-3.93;80.83;99647.69;5052752;28;20228;-83
2021/01/10 08:28:44;;;;;;;19.33;11.85;;;;;;;-3.82;79.43;99651.16;5066935;28;20252;-83
2021/01/10 08:31:13;;;;;;;18.65;10.45;;;;;;;-3.90;79.63;99645.03;5065318;28;20321;-83
2021/01/10 08:33:40;;;;;;;15.68;10.10;;;;;;;-3.93;79.39;99648.53;5047697;28;20714;-84
2021/01/10 08:36:20;;;;;;;13.20;9.55;;;;;;;-3.89;79.28;99652.94;5061666;28;20207;-83
2021/01/10 08:38:50;;;;;;;11.20;8.52;;;;;;;-3.82;79.02;99652.06;5060237;28;20200;-83
2021/01/10 08:41:30;;;;;;;14.10;9.20;;;;;;;-3.85;78.88;99649.41;5074217;28;20215;-83
2021/01/10 08:44:15;;;;;;;14.75;10.15;;;;;;;-3.82;79.29;99661.66;5066145;28;20239;-82
2021/01/10 08:46:47;;;;;;;16.88;11.02;;;;;;;-3.75;79.31;99660.78;5077068;28;20219;-85
2021/01/10 08:49:18;;;;;;;14.77;11.10;;;;;;;-3.32;77.68;99662.47;5054684;28;20255;-86
2021/01/10 08:51:48;;;;;;;14.35;10.15;;;;;;;-3.38;78.17;99662.50;5040804;28;20232;-84
2021/01/10 08:54:16;;;;;;;14.50;10.02;;;;;;;-3.28;78.07;99662.47;5056343;28;20203;-83
2021/01/10 08:56:53;;;;;;;12.57;9.55;;;;;;;-3.15;77.35;99665.94;5061309;28;20249;-84
2021/01/10 08:59:20;;;;;;;12.27;8.90;;;;;;;-2.92;76.22;99658.84;5059837;28;20415;-83
2021/01/10 09:01:47;;;;;;;10.75;7.15;;;;;;;-2.95;76.16;99658.84;5058476;28;20250;-82
2021/01/10 09:04:15;;;;;;;13.73;8.77;;;;;;;-3.04;76.35;99656.25;5058609;28;20711;-84
2021/01/10 09:07:02;;;;;;;11.93;8.38;;;;;;;-3.02;76.42;99662.41;5050670;28;20287;-82
2021/01/10 09:09:31;;;;;;;13.70;8.40;;;;;;;-2.91;76.76;99665.84;5072629;28;20206;-83
2021/01/10 09:12:35;;;;;;;15.43;9.25;;;;;;;-2.91;76.66;99665.84;5084961;28;20185;-83
2021/01/10 09:15:33;;;;;;;12.93;9.27;;;;;;;-2.81;77.15;99662.31;5083295;28;20236;-81
2021/01/10 09:18:03;;;;;;;14.30;10.30;;;;;;;-2.76;77.34;99665.78;5084279;28;20304;-84
2021/01/10 09:20:35;;;;;;;16.08;10.30;;;;;;;-2.68;77.85;99664.88;5066019;28;20243;-83
2021/01/10 09:23:09;;;;;;;18.77;11.63;;;;;;;-2.66;78.24;99667.47;5089756;28;20250;-84
2021/01/10 09:26:05;;;;;;;17.45;11.65;;;;;;;-2.31;77.76;99668.19;5075558;28;20228;-83
2021/01/10 09:28:33;;;;;;;22.45;12.95;;;;;;;-2.43;77.72;99673.53;5042255;28;20243;-84
2021/01/10 09:31:02;;;;;;;19.63;12.25;;;;;;;-2.19;77.43;99670.75;5055826;28;20239;-84
2021/01/10 09:33:32;;;;;;;18.27;12.82;;;;;;;-2.28;77.38;99673.41;5056535;28;20235;-86
2021/01/10 09:36:00;;;;;;;23.15;13.65;;;;;;;-2.18;77.59;99672.47;5051801;28;20205;-84
2021/01/10 09:38:31;;;;;;;15.77;11.82;;;;;;;-2.16;77.73;99670.69;5054083;28;20224;-84
2021/01/10 09:41:15;;;;;;;20.02;12.85;;;;;;;-2.04;78.02;99678.53;5078927;28;20228;-82
2021/01/10 09:43:44;;;;;;;20.23;13.02;;;;;;;-1.80;77.82;99673.94;5059457;28;20709;-83
2021/01/10 09:46:31;;;;;;;22.33;14.93;;;;;;;-1.66;77.44;99669.44;5054347;28;20221;-83
2021/01/10 09:49:16;;;;;;;21.63;15.18;;;;;;;-1.28;75.04;99669.06;5077537;28;20314;-83
2021/01/10 09:51:54;;;;;;;21.20;15.15;;;;;;;-1.33;75.67;99668.25;5051102;28;20254;-85
2021/01/10 09:54:29;;;;;;;22.40;14.60;;;;;;;-1.23;75.39;99659.34;5043508;28;20192;-83
2021/01/10 09:56:59;;;;;;;20.10;13.95;;;;;;;-1.08;75.14;99682.94;5077055;28;20218;-85
2021/01/10 09:59:46;;;;;;;19.60;14.27;;;;;;;-0.98;74.87;99680.16;5073563;28;20224;-85
2021/01/10 10:02:17;;;;;;;22.42;15.20;;;;;;;-0.97;75.49;99667.84;5057953;28;20240;-84
2021/01/10 10:04:49;;;;;;;23.85;15.85;;;;;;;-0.93;75.30;99662.53;5072380;28;20246;-82
2021/01/10 10:07:33;;;;;;;18.80;14.43;;;;;;;-0.81;75.19;99659.75;5071655;28;20223;-83
2021/01/10 10:10:33;;;;;;;23.08;15.60;;;;;;;-0.70;75.51;99651.69;5067023;28;20226;-83
2021/01/10 10:13:09;;;;;;;25.48;16.23;;;;;;;-0.66;75.32;99651.63;5049255;28;20253;-84
2021/01/10 10:15:42;;;;;;;21.65;15.00;;;;;;;-0.35;74.39;99641.50;5068543;28;20220;-84
2021/01/10 10:18:15;;;;;;;22.35;15.50;;;;;;;-0.23;73.23;99649.25;5058789;28;20280;-83
2021/01/10 10:20:42;;;;;;;21.23;14.85;;;;;;;-0.13;73.71;99642.94;5055115;28;20209;-83
2021/01/10 10:23:10;;;;;;;18.85;14.20;;;;;;;-0.08;73.42;99640.22;5064184;28;20225;-84
2021/01/10 10:25:37;;;;;;;18.05;13.20;;;;;;;-0.27;73.80;99635.22;5045664;28;20220;-82
2021/01/10 10:28:05;;;;;;;20.50;14.52;;;;;;;0.01;73.72;99637.41;5078327;28;20247;-84
2021/01/10 10:30:35;;;;;;;23.35;16.33;;;;;;;-0.03;73.03;99641.03;5071345;28;20227;-86
2021/01/10 10:33:06;;;;;;;24.88;14.93;;;;;;;0.21;73.08;99637.13;5059508;28;20206;-80
2021/01/10 10:35:33;;;;;;;20.67;14.68;;;;;;;0.42;72.67;99642.03;5037103;28;20230;-83
2021/01/10 10:38:02;;;;;;;21.25;15.18;;;;;;;0.50;72.68;99630.41;5036176;28;20252;-83
2021/01/10 10:40:28;;;;;;;19.85;13.65;;;;;;;0.53;72.40;99634.78;5013078;28;20225;-84
2021/01/10 10:43:02;;;;;;;23.38;14.23;;;;;;;0.52;72.33;99635.69;5045569;28;20224;-83
2021/01/10 10:45:29;;;;;;;19.38;13.82;;;;;;;0.72;72.08;99629.13;5032897;28;20220;-85
2021/01/10 10:47:56;;;;;;;20.02;13.68;;;;;;;0.94;71.39;99630.47;5040355;28;20199;-84
2021/01/10 10:50:22;;;;;;;20.27;13.68;;;;;;;0.95;71.38;99629.56;5062711;28;20224;-82
2021/01/10 10:52:50;;;;;;;16.67;12.32;;;;;;;0.99;70.83;99625.97;5056630;28;20229;-85
2021/01/10 10:55:18;;;;;;;18.42;12.93;;;;;;;1.07;71.11;99623.16;5053553;28;20228;-83
2021/01/10 10:57:46;;;;;;;17.27;11.85;;;;;;;1.15;70.92;99626.50;5034084;28;20262;-84
2021/01/10 11:00:13;;;;;;;13.52;9.88;;;;;;;1.28;70.25;99615.63;5047912;28;20301;-82
2021/01/10 11:02:39;;;;;;;17.90;13.10;;;;;;;1.37;70.03;99618.06;5046483;28;20208;-82
2021/01/10 11:05:08;;;;;;;15.57;10.70;;;;;;;1.44;69.35;99614.41;5047394;28;20715;-85
2021/01/10 11:07:38;;;;;;;15.48;11.30;;;;;;;1.53;69.34;99610.66;5036401;28;20637;-83
2021/01/10 11:10:17;;;;;;;17.33;10.70;;;;;;;1.70;69.34;99611.19;5044398;28;20227;-80
2021/01/10 11:12:46;;;;;;;17.60;11.75;;;;;;;1.83;68.88;99605.56;5045577;28;20330;-83
2021/01/10 11:15:13;;;;;;;13.98;10.52;;;;;;;1.77;67.73;99608.38;5058508;28;20173;-82
2021/01/10 11:17:40;;;;;;;16.48;10.52;;;;;;;1.93;67.57;99601.78;5070347;28;20244;-82
2021/01/10 11:20:07;;;;;;;13.88;9.90;;;;;;;2.12;66.99;99594.25;5049751;28;20239;-81
2021/01/10 11:22:58;;;;;;;15.35;10.10;;;;;;;2.15;67.12;99597.72;5058057;28;20224;-82
2021/01/10 11:25:26;;;;;;;15.65;10.43;;;;;;;2.17;67.23;99589.69;5040684;28;20224;-79
2021/01/10 11:27:52;;;;;;;14.57;10.00;;;;;;;2.35;66.22;99592.78;5038913;28;20301;-81
2021/01/10 11:30:22;;;;;;;11.57;9.70;;;;;;;2.20;65.85;99593.13;5020487;28;20217;-81
2021/01/10 11:32:49;;;;;;;13.15;10.40;;;;;;;2.15;66.05;99584.44;5035786;28;20201;-78
2021/01/10 11:35:15;;;;;;;14.90;10.30;;;;;;;2.32;66.37;99582.22;5034905;28;20220;-78
2021/01/10 11:37:42;;;;;;;13.93;9.38;;;;;;;2.40;65.76;99577.59;5049488;28;20275;-80
2021/01/10 11:40:15;;;;;;;13.40;9.82;;;;;;;2.56;65.30;99576.28;5045939;28;20251;-79